createdAt,value
2017-06-05T00:00:43.901Z,11.01
2017-06-05T00:01:45.347Z,10.96
2017-06-05T00:02:46.810Z,11.01
2017-06-05T00:03:48.266Z,11.02
2017-06-05T00:04:49.716Z,11.38
2017-06-05T00:05:51.165Z,11.29
2017-06-05T00:06:52.615Z,11.49
2017-06-05T00:07:54.072Z,11.56
2017-06-05T00:08:55.529Z,11.67
2017-06-05T00:09:56.986Z,11.78
2017-06-05T00:10:58.437Z,11.80
2017-06-05T00:11:59.909Z,11.77
2017-06-05T00:13:01.355Z,11.82
2017-06-05T00:14:02.810Z,11.75
2017-06-05T00:15:04.262Z,11.85
2017-06-05T00:16:05.722Z,11.75
2017-06-05T00:17:07.170Z,11.80
2017-06-05T00:18:08.624Z,11.99
2017-06-05T00:19:10.075Z,12.08
2017-06-05T00:20:11.526Z,12.08
2017-06-05T00:21:12.977Z,12.13
2017-06-05T00:22:14.436Z,12.21
2017-06-05T00:23:15.893Z,12.23
2017-06-05T00:24:17.338Z,12.16
2017-06-05T00:25:18.790Z,12.09
2017-06-05T00:26:20.258Z,12.02
2017-06-05T00:27:21.718Z,12.01
2017-06-05T00:28:23.179Z,12.06
2017-06-05T00:29:24.632Z,12.06
2017-06-05T00:30:26.084Z,12.01
2017-06-05T00:31:27.532Z,12.01
2017-06-05T00:32:29.000Z,11.96
2017-06-05T00:33:30.450Z,11.99
2017-06-05T00:34:31.910Z,12.02
2017-06-05T00:35:33.369Z,11.99
2017-06-05T00:36:34.817Z,12.11
2017-06-05T00:37:36.277Z,11.96
2017-06-05T00:38:37.771Z,11.90
2017-06-05T00:39:39.223Z,11.89
2017-06-05T00:40:40.680Z,11.82
2017-06-05T00:41:42.135Z,11.72
2017-06-05T00:42:43.588Z,11.87
2017-06-05T00:43:45.038Z,11.87
2017-06-05T00:44:46.493Z,11.77
2017-06-05T00:45:47.944Z,11.87
2017-06-05T00:46:49.406Z,12.02
2017-06-05T00:47:50.857Z,11.96
2017-06-05T00:48:52.313Z,11.86
2017-06-05T00:49:53.887Z,11.80
2017-06-05T00:50:55.336Z,11.93
2017-06-05T00:51:56.899Z,11.87
2017-06-05T00:52:58.347Z,11.87
2017-06-05T00:53:59.797Z,11.75
2017-06-05T00:55:01.261Z,11.86
2017-06-05T00:56:02.708Z,11.82
2017-06-05T00:57:04.179Z,11.75
2017-06-05T00:58:05.636Z,11.72
2017-06-05T00:59:07.106Z,11.74
2017-06-05T01:00:08.560Z,11.77
2017-06-05T01:01:10.015Z,11.71
2017-06-05T01:02:11.479Z,11.62
2017-06-05T01:03:12.937Z,11.52
2017-06-05T01:04:14.409Z,11.38
2017-06-05T01:05:15.868Z,11.28
2017-06-05T01:06:17.326Z,11.19
2017-06-05T01:07:18.774Z,11.35
2017-06-05T01:08:20.229Z,11.25
2017-06-05T01:09:21.677Z,11.36
2017-06-05T01:10:23.125Z,11.28
2017-06-05T01:11:24.587Z,11.20
2017-06-05T01:12:26.043Z,11.31
2017-06-05T01:13:27.493Z,11.54
2017-06-05T01:14:28.952Z,11.53
2017-06-05T01:15:30.405Z,11.65
2017-06-05T01:16:31.893Z,11.53
2017-06-05T01:17:33.343Z,11.53
2017-06-05T01:18:34.798Z,11.57
2017-06-05T01:19:36.255Z,11.41
2017-06-05T01:20:37.707Z,11.41
2017-06-05T01:21:39.163Z,11.27
2017-06-05T01:22:40.607Z,11.52
2017-06-05T01:23:42.061Z,11.39
2017-06-05T01:24:43.518Z,11.44
2017-06-05T01:25:44.968Z,11.38
2017-06-05T01:27:51.262Z,11.52
2017-06-05T01:28:52.710Z,11.46
2017-06-05T01:29:54.164Z,11.49
2017-06-05T01:30:55.611Z,11.14
2017-06-05T01:31:57.067Z,11.25
2017-06-05T01:32:58.514Z,11.01
2017-06-05T01:33:59.976Z,11.03
2017-06-05T01:35:01.423Z,10.98
2017-06-05T01:36:02.873Z,11.31
2017-06-05T01:37:04.327Z,11.25
2017-06-05T01:38:05.782Z,11.20
2017-06-05T01:39:07.241Z,11.24
2017-06-05T01:40:08.687Z,11.25
2017-06-05T01:41:10.149Z,11.16
2017-06-05T01:42:11.606Z,11.13
2017-06-05T01:43:13.057Z,11.01
2017-06-05T01:44:14.533Z,10.95
2017-06-05T01:45:15.988Z,11.03
2017-06-05T01:46:17.440Z,10.92
2017-06-05T01:47:18.896Z,10.91
2017-06-05T01:48:20.398Z,10.83
2017-06-05T01:49:21.852Z,10.81
2017-06-05T01:50:23.313Z,10.94
2017-06-05T01:51:24.760Z,10.96
2017-06-05T01:52:26.209Z,10.78
2017-06-05T01:53:27.665Z,10.78
2017-06-05T01:54:29.118Z,10.78
2017-06-05T01:55:30.566Z,10.63
2017-06-05T01:56:32.098Z,10.63
2017-06-05T01:57:33.671Z,10.84
2017-06-05T01:58:35.134Z,10.91
2017-06-05T01:59:36.585Z,10.80
2017-06-05T02:00:38.046Z,11.02
2017-06-05T02:01:39.498Z,10.94
2017-06-05T02:02:40.960Z,10.89
2017-06-05T02:03:42.430Z,10.68
2017-06-05T02:04:43.879Z,10.62
2017-06-05T02:05:45.341Z,10.70
2017-06-05T02:06:46.798Z,10.73
2017-06-05T02:07:48.250Z,10.53
2017-06-05T02:08:49.700Z,10.51
2017-06-05T02:09:51.154Z,10.40
2017-06-05T02:10:52.610Z,10.63
2017-06-05T02:11:54.059Z,10.60
2017-06-05T02:12:55.509Z,10.76
2017-06-05T02:13:56.969Z,10.68
2017-06-05T02:14:58.416Z,10.84
2017-06-05T02:15:59.862Z,10.71
2017-06-05T02:17:01.321Z,10.66
2017-06-05T02:18:02.777Z,10.66
2017-06-05T02:19:04.236Z,10.80
2017-06-05T02:20:05.691Z,10.71
2017-06-05T02:21:07.141Z,10.95
2017-06-05T02:22:08.595Z,10.89
2017-06-05T02:23:10.059Z,11.11
2017-06-05T02:24:11.506Z,10.83
2017-06-05T02:25:12.966Z,10.76
2017-06-05T02:26:14.440Z,10.94
2017-06-05T02:27:15.886Z,10.80
2017-06-05T02:28:17.344Z,10.76
2017-06-05T02:29:18.791Z,10.74
2017-06-05T02:30:20.246Z,10.76
2017-06-05T02:31:21.700Z,10.89
2017-06-05T02:32:23.153Z,10.95
2017-06-05T02:33:24.614Z,10.76
2017-06-05T02:34:26.065Z,10.81
2017-06-05T02:35:27.513Z,10.78
2017-06-05T02:36:28.965Z,10.71
2017-06-05T02:37:30.423Z,10.74
2017-06-05T02:38:31.870Z,10.65
2017-06-05T02:39:33.330Z,10.80
2017-06-05T02:40:34.779Z,10.74
2017-06-05T02:41:36.230Z,10.66
2017-06-05T02:42:37.685Z,10.71
2017-06-05T02:43:39.168Z,10.56
2017-06-05T02:44:40.628Z,10.53
2017-06-05T02:45:42.079Z,10.40
2017-06-05T02:46:43.534Z,10.37
2017-06-05T02:47:44.983Z,10.40
2017-06-05T02:48:46.438Z,10.30
2017-06-05T02:49:47.886Z,10.25
2017-06-05T02:50:49.343Z,10.30
2017-06-05T02:51:50.792Z,10.21
2017-06-05T02:52:52.245Z,10.24
2017-06-05T02:53:53.692Z,10.21
2017-06-05T02:54:55.142Z,10.04
2017-06-05T02:55:56.596Z,10.04
2017-06-05T02:56:58.052Z,9.97
2017-06-05T02:57:59.503Z,9.93
2017-06-05T02:59:00.950Z,9.93
2017-06-05T03:00:02.413Z,9.89
2017-06-05T03:01:03.867Z,9.82
2017-06-05T03:02:05.315Z,9.88
2017-06-05T03:03:06.783Z,9.89
2017-06-05T03:04:08.238Z,9.83
2017-06-05T03:05:09.692Z,9.86
2017-06-05T03:06:11.153Z,9.89
2017-06-05T03:07:12.609Z,9.89
2017-06-05T03:08:14.066Z,9.85
2017-06-05T03:09:15.530Z,9.73
2017-06-05T03:10:16.984Z,9.85
2017-06-05T03:11:18.436Z,9.81
2017-06-05T03:12:19.887Z,9.82
2017-06-05T03:13:21.344Z,9.76
2017-06-05T03:14:22.799Z,9.89
2017-06-05T03:15:24.247Z,9.83
2017-06-05T03:16:25.709Z,9.83
2017-06-05T03:17:27.162Z,9.71
2017-06-05T03:18:28.613Z,9.73
2017-06-05T03:19:30.063Z,9.88
2017-06-05T03:20:31.525Z,9.73
2017-06-05T03:21:32.975Z,9.79
2017-06-05T03:22:34.434Z,9.79
2017-06-05T03:23:35.890Z,9.88
2017-06-05T03:24:37.345Z,9.76
2017-06-05T03:25:38.799Z,9.67
2017-06-05T03:26:40.368Z,9.85
2017-06-05T03:27:41.821Z,9.83
2017-06-05T03:28:43.273Z,9.82
2017-06-05T03:29:44.734Z,9.91
2017-06-05T03:30:46.191Z,9.99
2017-06-05T03:31:47.648Z,10.07
2017-06-05T03:32:49.099Z,10.07
2017-06-05T03:33:50.552Z,10.06
2017-06-05T03:34:52.020Z,10.06
2017-06-05T03:35:53.505Z,10.10
2017-06-05T03:36:54.958Z,10.06
2017-06-05T03:37:56.432Z,10.30
2017-06-05T03:38:57.885Z,10.30
2017-06-05T03:39:59.347Z,10.43
2017-06-05T03:41:00.797Z,10.42
2017-06-05T03:42:02.254Z,10.42
2017-06-05T03:43:03.712Z,10.43
2017-06-05T03:44:05.177Z,10.44
2017-06-05T03:45:06.633Z,10.40
2017-06-05T03:46:08.111Z,10.28
2017-06-05T03:47:09.571Z,10.36
2017-06-05T03:48:11.027Z,10.40
2017-06-05T03:49:12.491Z,10.43
2017-06-05T03:50:13.949Z,10.55
2017-06-05T03:51:15.416Z,10.43
2017-06-05T03:52:16.872Z,10.60
2017-06-05T03:53:18.332Z,10.65
2017-06-05T03:54:19.789Z,10.55
2017-06-05T03:55:21.240Z,10.62
2017-06-05T03:56:22.701Z,10.63
2017-06-05T03:57:24.159Z,10.60
2017-06-05T03:58:25.627Z,10.70
2017-06-05T03:59:27.084Z,10.66
2017-06-05T04:00:28.536Z,10.68
2017-06-05T04:01:29.995Z,10.68
2017-06-05T04:02:31.455Z,10.63
2017-06-05T04:03:32.913Z,10.80
2017-06-05T04:04:34.374Z,10.81
2017-06-05T04:05:35.847Z,10.74
2017-06-05T04:06:37.301Z,10.78
2017-06-05T04:07:38.757Z,10.95
2017-06-05T04:08:40.212Z,10.98
2017-06-05T04:09:41.678Z,10.98
2017-06-05T04:10:43.141Z,10.96
2017-06-05T04:11:44.595Z,10.98
2017-06-05T04:12:46.061Z,11.16
2017-06-05T04:13:47.527Z,11.19
2017-06-05T04:14:48.984Z,11.20
2017-06-05T04:15:50.444Z,11.19
2017-06-05T04:16:51.901Z,11.21
2017-06-05T04:17:53.368Z,11.27
2017-06-05T04:18:54.825Z,11.35
2017-06-05T04:19:56.291Z,11.31
2017-06-05T04:20:57.750Z,11.38
2017-06-05T04:21:59.203Z,11.47
2017-06-05T04:23:00.665Z,11.53
2017-06-05T04:24:02.139Z,11.67
2017-06-05T04:25:03.602Z,11.65
2017-06-05T04:26:06.682Z,11.80
2017-06-05T04:27:08.145Z,11.77
2017-06-05T04:28:09.607Z,12.01
2017-06-05T04:29:11.060Z,12.02
2017-06-05T04:30:12.515Z,12.05
2017-06-05T04:31:13.970Z,12.04
2017-06-05T04:32:15.426Z,12.11
2017-06-05T04:33:16.886Z,12.16
2017-06-05T04:34:18.343Z,12.27
2017-06-05T04:35:19.804Z,12.42
2017-06-05T04:36:21.264Z,12.38
2017-06-05T04:37:22.718Z,12.49
2017-06-05T04:38:24.179Z,12.64
2017-06-05T04:39:25.635Z,12.71
2017-06-05T04:40:27.094Z,12.92
2017-06-05T04:41:28.641Z,12.99
2017-06-05T04:42:30.105Z,13.04
2017-06-05T04:43:31.661Z,13.07
2017-06-05T04:44:33.123Z,13.22
2017-06-05T04:45:34.581Z,13.33
2017-06-05T04:46:36.050Z,13.44
2017-06-05T04:47:37.511Z,13.59
2017-06-05T04:48:38.998Z,13.58
2017-06-05T04:49:40.425Z,13.67
2017-06-05T04:50:41.886Z,13.79
2017-06-05T04:51:43.351Z,13.74
2017-06-05T04:52:44.817Z,13.88
2017-06-05T04:53:46.285Z,13.77
2017-06-05T04:54:47.743Z,13.67
2017-06-05T04:55:49.207Z,13.65
2017-06-05T04:56:50.679Z,13.83
2017-06-05T04:57:52.157Z,13.83
2017-06-05T04:58:53.613Z,13.95
2017-06-05T04:59:55.089Z,13.83
2017-06-05T05:00:56.557Z,13.69
2017-06-05T05:01:58.046Z,13.84
2017-06-05T05:02:59.487Z,13.98
2017-06-05T05:04:00.950Z,14.02
2017-06-05T05:05:02.404Z,14.24
2017-06-05T05:06:05.083Z,14.37
2017-06-05T05:07:06.555Z,14.50
2017-06-05T05:08:08.019Z,14.65
2017-06-05T05:09:09.482Z,14.81
2017-06-05T05:10:10.961Z,14.86
2017-06-05T05:11:12.416Z,14.86
2017-06-05T05:12:13.884Z,14.91
2017-06-05T05:13:15.351Z,14.99
2017-06-05T05:14:16.810Z,15.03
2017-06-05T05:15:18.294Z,15.23
2017-06-05T05:16:19.759Z,15.24
2017-06-05T05:17:21.227Z,14.99
2017-06-05T05:18:22.685Z,14.99
2017-06-05T05:19:24.146Z,15.09
2017-06-05T05:20:25.615Z,15.23
2017-06-05T05:21:27.093Z,15.12
2017-06-05T05:22:28.543Z,15.26
2017-06-05T05:23:30.003Z,15.39
2017-06-05T05:24:31.477Z,15.27
2017-06-05T05:25:32.943Z,15.28
2017-06-05T05:26:34.411Z,15.39
2017-06-05T05:27:35.875Z,15.41
2017-06-05T05:28:37.336Z,15.42
2017-06-05T05:29:38.796Z,15.41
2017-06-05T05:30:40.275Z,15.42
2017-06-05T05:31:41.758Z,15.54
2017-06-05T05:32:43.209Z,15.54
2017-06-05T05:33:44.676Z,15.63
2017-06-05T05:34:46.146Z,15.79
2017-06-05T05:35:47.606Z,15.85
2017-06-05T05:36:49.085Z,15.59
2017-06-05T05:37:50.572Z,15.54
2017-06-05T05:38:52.038Z,15.67
2017-06-05T05:39:53.507Z,15.48
2017-06-05T05:40:54.972Z,15.52
2017-06-05T05:41:56.438Z,15.49
2017-06-05T05:42:57.905Z,15.57
2017-06-05T05:43:59.361Z,15.46
2017-06-05T05:45:00.827Z,15.48
2017-06-05T05:46:03.301Z,15.48
2017-06-05T05:47:04.766Z,15.72
2017-06-05T05:48:06.232Z,15.54
2017-06-05T05:49:07.695Z,15.63
2017-06-05T05:50:09.163Z,15.74
2017-06-05T05:51:10.623Z,15.85
2017-06-05T05:52:12.094Z,16.11
2017-06-05T05:53:13.554Z,15.86
2017-06-05T05:54:15.022Z,15.49
2017-06-05T05:55:16.481Z,15.78
2017-06-05T05:56:17.966Z,15.99
2017-06-05T05:57:19.439Z,15.99
2017-06-05T05:58:20.901Z,16.20
2017-06-05T05:59:22.372Z,16.42
2017-06-05T06:00:23.846Z,16.67
2017-06-05T06:01:25.311Z,16.41
2017-06-05T06:02:26.772Z,16.71
2017-06-05T06:03:28.230Z,16.92
2017-06-05T06:04:29.690Z,16.96
2017-06-05T06:05:31.157Z,17.32
2017-06-05T06:06:32.621Z,17.40
2017-06-05T06:07:34.088Z,17.38
2017-06-05T06:08:35.577Z,17.47
2017-06-05T06:09:37.041Z,17.71
2017-06-05T06:10:38.509Z,17.69
2017-06-05T06:11:39.981Z,17.59
2017-06-05T06:12:41.449Z,17.85
2017-06-05T06:13:42.947Z,17.53
2017-06-05T06:14:44.424Z,17.67
2017-06-05T06:15:45.892Z,17.84
2017-06-05T06:16:47.362Z,17.48
2017-06-05T06:17:48.829Z,17.82
2017-06-05T06:18:50.306Z,18.31
2017-06-05T06:19:51.779Z,18.24
2017-06-05T06:20:53.248Z,17.97
2017-06-05T06:21:54.725Z,18.12
2017-06-05T06:22:56.188Z,17.88
2017-06-05T06:23:57.661Z,17.97
2017-06-05T06:24:59.145Z,17.95
2017-06-05T06:26:00.613Z,17.92
2017-06-05T06:27:02.088Z,17.67
2017-06-05T06:28:03.557Z,17.84
2017-06-05T06:29:05.097Z,17.69
2017-06-05T06:30:06.560Z,17.79
2017-06-05T06:31:08.147Z,18.19
2017-06-05T06:32:09.627Z,18.49
2017-06-05T06:33:11.102Z,18.80
2017-06-05T06:34:12.568Z,19.20
2017-06-05T06:35:14.042Z,20.20
2017-06-05T06:36:15.515Z,20.49
2017-06-05T06:37:16.986Z,19.35
2017-06-05T06:38:18.469Z,18.52
2017-06-05T06:39:19.935Z,19.31
2017-06-05T06:40:21.412Z,19.21
2017-06-05T06:41:22.894Z,19.08
2017-06-05T06:42:24.397Z,19.06
2017-06-05T06:43:25.870Z,19.39
2017-06-05T06:44:27.342Z,19.83
2017-06-05T06:45:28.807Z,19.76
2017-06-05T06:46:30.321Z,20.12
2017-06-05T06:47:31.792Z,20.46
2017-06-05T06:48:33.262Z,20.68
2017-06-05T06:49:34.746Z,20.74
2017-06-05T06:50:36.219Z,21.13
2017-06-05T06:51:37.690Z,21.05
2017-06-05T06:52:39.175Z,20.96
2017-06-05T06:53:40.641Z,20.83
2017-06-05T06:54:42.120Z,21.06
2017-06-05T06:55:43.591Z,20.91
2017-06-05T06:56:45.080Z,20.77
2017-06-05T06:57:46.555Z,19.94
2017-06-05T06:58:48.034Z,19.76
2017-06-05T06:59:49.515Z,19.94
2017-06-05T07:00:50.982Z,19.78
2017-06-05T07:01:52.456Z,19.54
2017-06-05T07:02:53.926Z,19.61
2017-06-05T07:03:55.399Z,19.68
2017-06-05T07:04:56.869Z,19.66
2017-06-05T07:05:58.353Z,19.95
2017-06-05T07:06:59.823Z,19.83
2017-06-05T07:08:01.298Z,19.43
2017-06-05T07:09:02.777Z,19.21
2017-06-05T07:10:04.259Z,19.29
2017-06-05T07:11:05.737Z,19.70
2017-06-05T07:12:07.209Z,20.00
2017-06-05T07:13:08.687Z,19.93
2017-06-05T07:14:10.175Z,20.08
2017-06-05T07:15:11.665Z,19.43
2017-06-05T07:16:13.144Z,20.12
2017-06-05T07:17:14.617Z,20.72
2017-06-05T07:18:16.105Z,20.51
2017-06-05T07:19:17.582Z,19.87
2017-06-05T07:20:19.051Z,19.18
2017-06-05T07:21:20.524Z,19.73
2017-06-05T07:22:22.008Z,19.83
2017-06-05T07:23:23.495Z,20.49
2017-06-05T07:24:24.975Z,21.01
2017-06-05T07:25:26.458Z,20.61
2017-06-05T07:26:27.954Z,20.13
2017-06-05T07:27:29.423Z,19.54
2017-06-05T07:28:30.895Z,20.06
2017-06-05T07:29:32.365Z,20.65
2017-06-05T07:30:33.841Z,21.06
2017-06-05T07:31:35.316Z,20.62
2017-06-05T07:32:36.792Z,21.16
2017-06-05T07:33:38.267Z,21.29
2017-06-05T07:34:39.741Z,21.21
2017-06-05T07:35:41.225Z,20.95
2017-06-05T07:36:42.707Z,21.35
2017-06-05T07:37:44.180Z,21.98
2017-06-05T07:38:45.658Z,21.45
2017-06-05T07:39:47.130Z,21.08
2017-06-05T07:40:48.600Z,21.21
2017-06-05T07:41:50.088Z,20.58
2017-06-05T07:42:51.565Z,19.54
2017-06-05T07:43:53.040Z,19.48
2017-06-05T07:44:54.517Z,20.15
2017-06-05T07:45:55.988Z,20.81
2017-06-05T07:46:57.472Z,20.50
2017-06-05T07:47:58.945Z,20.28
2017-06-05T07:49:00.428Z,20.71
2017-06-05T07:50:01.916Z,20.58
2017-06-05T07:51:03.408Z,20.71
2017-06-05T07:52:04.892Z,20.61
2017-06-05T07:53:06.365Z,20.15
2017-06-05T07:54:07.850Z,20.65
2017-06-05T07:55:09.328Z,20.50
2017-06-05T07:56:10.806Z,20.53
2017-06-05T07:57:12.365Z,20.46
2017-06-05T07:58:13.838Z,20.61
2017-06-05T07:59:15.341Z,20.74
2017-06-05T08:00:16.812Z,20.84
2017-06-05T08:01:18.304Z,20.61
2017-06-05T08:02:19.781Z,20.28
2017-06-05T08:03:21.278Z,20.54
2017-06-05T08:04:22.752Z,21.42
2017-06-05T08:05:24.288Z,21.46
2017-06-05T08:06:25.774Z,21.82
2017-06-05T08:07:27.407Z,21.45
2017-06-05T08:08:28.890Z,21.21
2017-06-05T08:09:30.478Z,21.75
2017-06-05T08:10:31.939Z,20.72
2017-06-05T08:11:33.541Z,20.38
2017-06-05T08:12:35.011Z,21.01
2017-06-05T08:13:36.608Z,21.42
2017-06-05T08:14:38.084Z,21.46
2017-06-05T08:15:39.552Z,21.16
2017-06-05T08:16:41.033Z,20.61
2017-06-05T08:17:42.512Z,20.56
2017-06-05T08:18:43.982Z,20.95
2017-06-05T08:19:45.463Z,21.75
2017-06-05T08:20:46.934Z,21.99
2017-06-05T08:21:48.411Z,22.57
2017-06-05T08:22:49.889Z,21.98
2017-06-05T08:23:51.362Z,21.97
2017-06-05T08:24:52.835Z,22.50
2017-06-05T08:25:54.321Z,23.39
2017-06-05T08:26:55.799Z,24.41
2017-06-05T08:27:57.280Z,24.90
2017-06-05T08:28:58.763Z,24.05
2017-06-05T08:30:00.238Z,23.61
2017-06-05T08:31:01.715Z,22.87
2017-06-05T08:32:03.207Z,23.45
2017-06-05T08:33:04.681Z,24.10
2017-06-05T08:34:06.171Z,24.08
2017-06-05T08:35:07.637Z,23.61
2017-06-05T08:36:11.232Z,23.92
2017-06-05T08:37:12.704Z,24.87
2017-06-05T08:38:14.182Z,25.02
2017-06-05T08:39:15.656Z,23.89
2017-06-05T08:40:17.131Z,23.76
2017-06-05T08:41:18.623Z,21.95
2017-06-05T08:42:20.110Z,23.26
2017-06-05T08:43:21.595Z,23.34
2017-06-05T08:44:23.077Z,22.54
2017-06-05T08:45:24.559Z,23.24
2017-06-05T08:46:26.043Z,23.85
2017-06-05T08:47:27.521Z,22.68
2017-06-05T08:48:29.002Z,22.84
2017-06-05T08:49:30.479Z,23.76
2017-06-05T08:50:31.954Z,22.62
2017-06-05T08:51:33.438Z,22.86
2017-06-05T08:52:34.926Z,24.27
2017-06-05T08:53:36.398Z,25.75
2017-06-05T08:54:37.883Z,25.06
2017-06-05T08:55:39.368Z,25.52
2017-06-05T08:56:40.842Z,26.01
2017-06-05T08:57:42.323Z,25.10
2017-06-05T08:58:43.835Z,23.08
2017-06-05T08:59:45.316Z,23.24
2017-06-05T09:00:46.802Z,24.08
2017-06-05T09:01:48.272Z,24.56
2017-06-05T09:02:49.747Z,24.32
2017-06-05T09:03:51.224Z,24.24
2017-06-05T09:04:52.708Z,23.80
2017-06-05T09:05:54.198Z,22.97
2017-06-05T09:06:55.739Z,22.92
2017-06-05T09:07:57.207Z,24.12
2017-06-05T09:08:58.681Z,23.79
2017-06-05T09:10:00.158Z,23.34
2017-06-05T09:11:01.637Z,22.31
2017-06-05T09:12:03.116Z,22.20
2017-06-05T09:13:04.611Z,22.59
2017-06-05T09:14:06.088Z,22.53
2017-06-05T09:15:07.567Z,21.71
2017-06-05T09:16:09.084Z,22.29
2017-06-05T09:17:10.563Z,23.15
2017-06-05T09:18:12.038Z,23.82
2017-06-05T09:19:13.532Z,24.45
2017-06-05T09:20:15.007Z,24.42
2017-06-05T09:21:16.485Z,24.42
2017-06-05T09:22:17.965Z,24.95
2017-06-05T09:23:19.440Z,23.35
2017-06-05T09:24:20.933Z,23.65
2017-06-05T09:25:22.407Z,24.44
2017-06-05T09:26:23.883Z,25.02
2017-06-05T09:27:25.365Z,23.76
2017-06-05T09:28:26.840Z,23.76
2017-06-05T09:29:28.314Z,24.32
2017-06-05T09:30:29.794Z,24.61
2017-06-05T09:31:31.272Z,24.88
2017-06-05T09:32:32.755Z,24.14
2017-06-05T09:33:34.239Z,25.43
2017-06-05T09:34:35.733Z,25.30
2017-06-05T09:35:37.208Z,25.13
2017-06-05T09:36:38.699Z,25.24
2017-06-05T09:37:40.168Z,24.98
2017-06-05T09:38:41.654Z,25.32
2017-06-05T09:39:43.138Z,25.43
2017-06-05T09:40:44.675Z,26.02
2017-06-05T09:41:46.178Z,26.72
2017-06-05T09:42:47.670Z,26.79
2017-06-05T09:43:49.159Z,26.81
2017-06-05T09:44:50.637Z,27.04
2017-06-05T09:45:52.129Z,26.36
2017-06-05T09:46:53.673Z,25.69
2017-06-05T09:47:55.195Z,25.72
2017-06-05T09:48:56.682Z,25.93
2017-06-05T09:49:58.242Z,25.93
2017-06-05T09:50:59.723Z,25.69
2017-06-05T09:52:01.220Z,26.05
2017-06-05T09:53:02.703Z,26.62
2017-06-05T09:54:04.188Z,26.99
2017-06-05T09:55:05.709Z,28.23
2017-06-05T09:56:07.211Z,25.56
2017-06-05T09:57:08.725Z,25.25
2017-06-05T09:58:10.212Z,25.97
2017-06-05T09:59:11.683Z,27.19
2017-06-05T10:00:13.171Z,27.04
2017-06-05T10:01:14.666Z,24.97
2017-06-05T10:02:16.162Z,25.75
2017-06-05T10:03:17.653Z,25.15
2017-06-05T10:04:19.133Z,25.43
2017-06-05T10:05:20.607Z,26.40
2017-06-05T10:06:22.086Z,26.02
2017-06-05T10:07:23.568Z,26.36
2017-06-05T10:08:25.063Z,26.62
2017-06-05T10:09:26.581Z,27.57
2017-06-05T10:10:28.066Z,27.20
2017-06-05T10:11:29.544Z,26.86
2017-06-05T10:12:31.032Z,26.15
2017-06-05T10:13:32.507Z,27.01
2017-06-05T10:14:33.992Z,27.85
2017-06-05T10:15:35.473Z,27.82
2017-06-05T10:16:36.985Z,26.21
2017-06-05T10:17:38.472Z,26.36
2017-06-05T10:18:39.958Z,26.73
2017-06-05T10:19:41.492Z,26.20
2017-06-05T10:20:42.975Z,26.32
2017-06-05T10:21:44.461Z,26.72
2017-06-05T10:22:45.944Z,26.61
2017-06-05T10:23:47.431Z,27.10
2017-06-05T10:24:48.925Z,26.87
2017-06-05T10:25:50.416Z,27.57
2017-06-05T10:26:51.895Z,28.11
2017-06-05T10:27:53.376Z,27.96
2017-06-05T10:28:54.854Z,27.99
2017-06-05T10:29:56.342Z,28.72
2017-06-05T10:30:57.850Z,27.70
2017-06-05T10:31:59.352Z,28.25
2017-06-05T10:33:00.942Z,28.47
2017-06-05T10:34:02.423Z,27.46
2017-06-05T10:35:03.904Z,28.56
2017-06-05T10:36:06.551Z,28.53
2017-06-05T10:37:08.044Z,28.91
2017-06-05T10:38:09.524Z,27.02
2017-06-05T10:39:11.004Z,26.92
2017-06-05T10:40:12.499Z,27.14
2017-06-05T10:41:13.994Z,26.24
2017-06-05T10:42:15.474Z,26.81
2017-06-05T10:43:16.960Z,26.81
2017-06-05T10:44:18.453Z,28.33
2017-06-05T10:45:19.935Z,28.58
2017-06-05T10:46:21.435Z,27.09
2017-06-05T10:47:22.932Z,27.59
2017-06-05T10:48:24.444Z,27.29
2017-06-05T10:49:25.924Z,26.12
2017-06-05T10:50:27.412Z,26.72
2017-06-05T10:51:28.904Z,27.79
2017-06-05T10:52:30.385Z,27.57
2017-06-05T10:53:31.867Z,27.53
2017-06-05T10:54:33.351Z,26.47
2017-06-05T10:55:34.841Z,26.91
2017-06-05T10:56:36.323Z,28.09
2017-06-05T10:57:37.851Z,27.04
2017-06-05T10:58:39.341Z,27.80
2017-06-05T10:59:40.836Z,28.03
2017-06-05T11:00:42.315Z,27.05
2017-06-05T11:01:43.801Z,28.23
2017-06-05T11:02:45.277Z,27.70
2017-06-05T11:03:46.761Z,28.43
2017-06-05T11:04:48.261Z,28.73
2017-06-05T11:05:49.756Z,28.32
2017-06-05T11:06:51.249Z,27.61
2017-06-05T11:07:52.738Z,28.01
2017-06-05T11:08:54.233Z,27.32
2017-06-05T11:09:55.712Z,28.31
2017-06-05T11:10:57.201Z,30.11
2017-06-05T11:11:58.763Z,30.59
2017-06-05T11:13:00.251Z,31.21
2017-06-05T11:14:01.732Z,30.37
2017-06-05T11:15:03.215Z,30.53
2017-06-05T11:16:04.696Z,30.38
2017-06-05T11:17:06.197Z,29.70
2017-06-05T11:18:07.680Z,29.55
2017-06-05T11:19:09.165Z,30.36
2017-06-05T11:20:10.667Z,31.79
2017-06-05T11:21:12.167Z,32.33
2017-06-05T11:22:13.646Z,32.42
2017-06-05T11:23:15.131Z,30.59
2017-06-05T11:24:16.610Z,29.87
2017-06-05T11:25:18.164Z,28.88
2017-06-05T11:26:19.679Z,28.88
2017-06-05T11:27:21.179Z,28.88
2017-06-05T11:28:22.659Z,28.40
2017-06-05T11:29:24.157Z,28.58
2017-06-05T11:30:25.646Z,29.08
2017-06-05T11:31:27.125Z,29.50
2017-06-05T11:32:28.611Z,29.62
2017-06-05T11:33:30.097Z,30.75
2017-06-05T11:34:31.583Z,28.28
2017-06-05T11:35:33.084Z,28.31
2017-06-05T11:36:34.583Z,27.35
2017-06-05T11:37:36.073Z,27.80
2017-06-05T11:38:37.557Z,28.97
2017-06-05T11:39:39.045Z,28.19
2017-06-05T11:40:41.236Z,25.83
2017-06-05T11:41:42.721Z,25.77
2017-06-05T11:42:44.210Z,24.79
2017-06-05T11:43:45.712Z,26.27
2017-06-05T11:44:47.205Z,27.80
2017-06-05T11:45:48.683Z,27.80
2017-06-05T11:46:50.174Z,29.41
2017-06-05T11:47:51.669Z,30.14
2017-06-05T11:48:53.145Z,29.26
2017-06-05T11:49:54.631Z,27.88
2017-06-05T11:50:56.118Z,28.38
2017-06-05T11:51:57.606Z,29.31
2017-06-05T11:52:59.117Z,29.68
2017-06-05T11:54:00.660Z,28.72
2017-06-05T11:55:02.151Z,28.75
2017-06-05T11:56:03.658Z,28.65
2017-06-05T11:57:05.139Z,28.38
2017-06-05T11:58:06.649Z,27.41
2017-06-05T11:59:08.139Z,27.94
2017-06-05T12:00:09.615Z,28.85
2017-06-05T12:01:11.100Z,30.23
2017-06-05T12:02:12.586Z,30.89
2017-06-05T12:03:14.074Z,30.99
2017-06-05T12:04:15.554Z,31.70
2017-06-05T12:05:17.062Z,31.67
2017-06-05T12:06:18.574Z,31.58
2017-06-05T12:07:20.055Z,29.93
2017-06-05T12:08:21.541Z,29.29
2017-06-05T12:09:23.033Z,29.25
2017-06-05T12:10:24.535Z,29.71
2017-06-05T12:11:26.024Z,29.07
2017-06-05T12:12:27.511Z,28.38
2017-06-05T12:13:28.994Z,29.38
2017-06-05T12:14:30.471Z,28.29
2017-06-05T12:15:31.972Z,28.03
2017-06-05T12:16:33.455Z,28.38
2017-06-05T12:17:34.940Z,29.97
2017-06-05T12:18:36.432Z,29.56
2017-06-05T12:19:37.925Z,29.74
2017-06-05T12:20:39.411Z,29.40
2017-06-05T12:21:40.896Z,28.43
2017-06-05T12:22:42.379Z,28.56
2017-06-05T12:23:43.875Z,28.44
2017-06-05T12:24:45.374Z,29.45
2017-06-05T12:25:46.885Z,30.24
2017-06-05T12:26:48.371Z,30.07
2017-06-05T12:27:49.858Z,29.37
2017-06-05T12:28:51.347Z,29.41
2017-06-05T12:29:52.830Z,27.53
2017-06-05T12:30:54.310Z,25.98
2017-06-05T12:31:55.788Z,25.05
2017-06-05T12:32:57.269Z,25.00
2017-06-05T12:33:58.757Z,25.28
2017-06-05T12:35:00.298Z,24.88
2017-06-05T12:36:01.773Z,25.42
2017-06-05T12:37:03.271Z,26.09
2017-06-05T12:38:04.753Z,27.28
2017-06-05T12:39:06.235Z,28.66
2017-06-05T12:40:07.709Z,29.20
2017-06-05T12:41:09.202Z,29.55
2017-06-05T12:42:10.683Z,28.25
2017-06-05T12:43:12.163Z,28.35
2017-06-05T12:44:13.649Z,28.09
2017-06-05T12:45:15.180Z,28.32
2017-06-05T12:46:16.644Z,28.16
2017-06-05T12:47:18.126Z,28.21
2017-06-05T12:48:19.612Z,28.43
2017-06-05T12:49:21.097Z,27.46
2017-06-05T12:50:22.568Z,25.52
2017-06-05T12:51:24.054Z,25.30
2017-06-05T12:52:25.541Z,25.99
2017-06-05T12:53:27.025Z,26.42
2017-06-05T12:54:28.530Z,27.84
2017-06-05T12:55:30.009Z,28.35
2017-06-05T12:56:31.489Z,27.53
2017-06-05T12:57:32.975Z,26.21
2017-06-05T12:58:34.459Z,26.20
2017-06-05T12:59:35.963Z,25.47
2017-06-05T13:00:37.444Z,24.88
2017-06-05T13:01:38.932Z,25.27
2017-06-05T13:02:40.433Z,25.25
2017-06-05T13:03:41.901Z,25.28
2017-06-05T13:04:43.391Z,25.64
2017-06-05T13:05:44.861Z,25.83
2017-06-05T13:06:46.345Z,25.94
2017-06-05T13:07:47.824Z,25.68
2017-06-05T13:08:49.327Z,25.56
2017-06-05T13:09:50.808Z,25.12
2017-06-05T13:10:52.288Z,24.57
2017-06-05T13:11:53.762Z,24.53
2017-06-05T13:12:55.237Z,24.68
2017-06-05T13:13:56.719Z,25.47